sensor_id;sensor_type;location;lat;lon;timestamp;pressure;altitude;pressure_sealevel;temperature;humidity
10064;BME280;5071;52.360;13.134;2023-02-14T00:04:21;103282.81;;;5.71;85.31
10064;BME280;5071;52.360;13.134;2023-02-14T00:09:23;103280.03;;;5.68;85.83
10064;BME280;5071;52.360;13.134;2023-02-14T00:14:27;103273.56;;;5.61;85.76
10064;BME280;5071;52.360;13.134;2023-02-14T00:19:30;103289.44;;;5.63;86.45
10064;BME280;5071;52.360;13.134;2023-02-14T00:24:32;103281.47;;;5.61;86.70
10064;BME280;5071;52.360;13.134;2023-02-14T00:29:35;103289.00;;;5.54;86.35
10064;BME280;5071;52.360;13.134;2023-02-14T00:34:39;103275.88;;;5.55;87.05
10064;BME280;5071;52.360;13.134;2023-02-14T00:39:41;103269.88;;;5.58;86.68
10064;BME280;5071;52.360;13.134;2023-02-14T00:44:45;103286.22;;;5.51;86.69
10064;BME280;5071;52.360;13.134;2023-02-14T00:49:48;103291.31;;;5.48;87.21
10064;BME280;5071;52.360;13.134;2023-02-14T00:54:50;103284.09;;;5.43;87.55
10064;BME280;5071;52.360;13.134;2023-02-14T00:59:54;103276.03;;;5.40;87.31
10064;BME280;5071;52.360;13.134;2023-02-14T01:04:56;103278.63;;;5.39;88.47
10064;BME280;5071;52.360;13.134;2023-02-14T01:09:57;103271.53;;;5.38;88.27
10064;BME280;5071;52.360;13.134;2023-02-14T01:15:01;103265.28;;;5.36;88.44
10064;BME280;5071;52.360;13.134;2023-02-14T01:20:05;103267.84;;;5.34;88.18
10064;BME280;5071;52.360;13.134;2023-02-14T01:25:07;103255.50;;;5.33;88.62
10064;BME280;5071;52.360;13.134;2023-02-14T01:30:14;103252.88;;;5.33;89.31
10064;BME280;5071;52.360;13.134;2023-02-14T01:35:17;103248.34;;;5.31;88.93
10064;BME280;5071;52.360;13.134;2023-02-14T01:40:20;103245.31;;;5.23;89.39
10064;BME280;5071;52.360;13.134;2023-02-14T01:45:36;103241.41;;;5.15;89.67
10064;BME280;5071;52.360;13.134;2023-02-14T01:50:48;103250.28;;;5.17;89.96
10064;BME280;5071;52.360;13.134;2023-02-14T01:56:05;103252.09;;;5.18;89.85
10064;BME280;5071;52.360;13.134;2023-02-14T02:01:11;103245.84;;;5.16;90.54
10064;BME280;5071;52.360;13.134;2023-02-14T02:06:16;103246.50;;;5.12;90.58
10064;BME280;5071;52.360;13.134;2023-02-14T02:11:24;103246.50;;;5.12;91.05
10064;BME280;5071;52.360;13.134;2023-02-14T02:16:45;103242.91;;;5.10;90.86
10064;BME280;5071;52.360;13.134;2023-02-14T02:28:10;103239.97;;;5.03;91.24
10064;BME280;5071;52.360;13.134;2023-02-14T02:33:45;103244.25;;;5.01;90.92
10064;BME280;5071;52.360;13.134;2023-02-14T02:39:04;103243.50;;;5.04;91.04
10064;BME280;5071;52.360;13.134;2023-02-14T02:44:17;103243.41;;;5.02;90.66
10064;BME280;5071;52.360;13.134;2023-02-14T02:49:28;103246.03;;;5.02;91.11
10064;BME280;5071;52.360;13.134;2023-02-14T02:54:39;103239.13;;;5.04;91.19
10064;BME280;5071;52.360;13.134;2023-02-14T02:59:44;103240.19;;;5.08;91.43
10064;BME280;5071;52.360;13.134;2023-02-14T03:04:50;103238.66;;;4.95;92.00
10064;BME280;5071;52.360;13.134;2023-02-14T03:09:58;103234.16;;;4.93;92.06
10064;BME280;5071;52.360;13.134;2023-02-14T03:15:20;103236.88;;;4.94;91.56
10064;BME280;5071;52.360;13.134;2023-02-14T03:20:36;103243.78;;;4.92;90.99
10064;BME280;5071;52.360;13.134;2023-02-14T03:25:56;103230.75;;;4.95;90.97
10064;BME280;5071;52.360;13.134;2023-02-14T03:31:07;103228.13;;;4.95;91.03
10064;BME280;5071;52.360;13.134;2023-02-14T03:36:24;103228.09;;;4.94;91.49
10064;BME280;5071;52.360;13.134;2023-02-14T03:41:40;103241.97;;;4.91;90.88
10064;BME280;5071;52.360;13.134;2023-02-14T03:47:09;103244.47;;;4.88;90.95
10064;BME280;5071;52.360;13.134;2023-02-14T03:52:17;103237.53;;;4.90;91.71
10064;BME280;5071;52.360;13.134;2023-02-14T03:57:24;103240.91;;;4.87;91.69
10064;BME280;5071;52.360;13.134;2023-02-14T04:02:30;103222.25;;;4.83;91.76
10064;BME280;5071;52.360;13.134;2023-02-14T04:07:43;103225.13;;;4.87;91.96
10064;BME280;5071;52.360;13.134;2023-02-14T04:12:47;103231.13;;;4.85;91.74
10064;BME280;5071;52.360;13.134;2023-02-14T04:17:49;103228.34;;;4.82;91.92
10064;BME280;5071;52.360;13.134;2023-02-14T04:22:51;103226.53;;;4.81;92.20
10064;BME280;5071;52.360;13.134;2023-02-14T04:27:54;103230.97;;;4.82;92.36
10064;BME280;5071;52.360;13.134;2023-02-14T04:32:57;103225.47;;;4.77;92.45
10064;BME280;5071;52.360;13.134;2023-02-14T04:37:59;103217.00;;;4.83;91.54
10064;BME280;5071;52.360;13.134;2023-02-14T04:43:04;103216.09;;;4.82;92.18
10064;BME280;5071;52.360;13.134;2023-02-14T04:48:06;103211.34;;;4.75;91.55
10064;BME280;5071;52.360;13.134;2023-02-14T04:53:08;103209.31;;;4.70;91.81
10064;BME280;5071;52.360;13.134;2023-02-14T04:58:12;103213.72;;;4.71;92.52
10064;BME280;5071;52.360;13.134;2023-02-14T05:03:14;103208.53;;;4.72;92.75
10064;BME280;5071;52.360;13.134;2023-02-14T05:08:17;103213.41;;;4.64;92.15
10064;BME280;5071;52.360;13.134;2023-02-14T05:13:20;103211.09;;;4.71;92.31
10064;BME280;5071;52.360;13.134;2023-02-14T05:18:22;103207.78;;;4.75;92.16
10064;BME280;5071;52.360;13.134;2023-02-14T05:23:24;103201.63;;;4.74;92.18
10064;BME280;5071;52.360;13.134;2023-02-14T05:28:28;103199.00;;;4.74;92.38
10064;BME280;5071;52.360;13.134;2023-02-14T05:33:30;103197.34;;;4.76;92.22
10064;BME280;5071;52.360;13.134;2023-02-14T05:38:32;103184.47;;;4.64;91.82
10064;BME280;5071;52.360;13.134;2023-02-14T05:43:35;103188.16;;;4.68;92.31
10064;BME280;5071;52.360;13.134;2023-02-14T05:48:37;103183.28;;;4.76;91.78
10064;BME280;5071;52.360;13.134;2023-02-14T05:53:39;103180.16;;;4.83;90.44
10064;BME280;5071;52.360;13.134;2023-02-14T05:58:43;103183.00;;;4.70;91.72
10064;BME280;5071;52.360;13.134;2023-02-14T06:03:46;103172.94;;;4.79;91.69
10064;BME280;5071;52.360;13.134;2023-02-14T06:08:47;103195.16;;;4.67;91.90
10064;BME280;5071;52.360;13.134;2023-02-14T06:13:51;103192.28;;;4.63;91.73
10064;BME280;5071;52.360;13.134;2023-02-14T06:18:53;103189.44;;;4.76;90.43
10064;BME280;5071;52.360;13.134;2023-02-14T06:23:55;103197.81;;;4.67;90.92
10064;BME280;5071;52.360;13.134;2023-02-14T06:28:58;103203.69;;;4.63;91.33
10064;BME280;5071;52.360;13.134;2023-02-14T06:34:00;103197.16;;;4.55;91.85
10064;BME280;5071;52.360;13.134;2023-02-14T06:39:11;103194.69;;;4.58;91.48
10064;BME280;5071;52.360;13.134;2023-02-14T06:44:14;103197.06;;;4.54;92.13
10064;BME280;5071;52.360;13.134;2023-02-14T06:49:16;103193.75;;;4.58;92.07
10064;BME280;5071;52.360;13.134;2023-02-14T06:54:18;103200.59;;;4.54;92.02
10064;BME280;5071;52.360;13.134;2023-02-14T06:59:22;103191.22;;;4.59;91.99
10064;BME280;5071;52.360;13.134;2023-02-14T07:04:24;103194.00;;;4.79;92.58
10064;BME280;5071;52.360;13.134;2023-02-14T07:09:26;103196.84;;;4.83;91.42
10064;BME280;5071;52.360;13.134;2023-02-14T07:14:29;103186.09;;;4.97;91.75
10064;BME280;5071;52.360;13.134;2023-02-14T07:19:32;103196.66;;;5.15;91.21
10064;BME280;5071;52.360;13.134;2023-02-14T07:24:33;103186.06;;;5.13;89.82
10064;BME280;5071;52.360;13.134;2023-02-14T07:29:37;103186.50;;;5.22;90.48
10064;BME280;5071;52.360;13.134;2023-02-14T07:34:38;103191.16;;;5.28;89.40
10064;BME280;5071;52.360;13.134;2023-02-14T07:39:40;103193.41;;;5.38;89.13
10064;BME280;5071;52.360;13.134;2023-02-14T07:44:44;103192.34;;;5.53;88.64
10064;BME280;5071;52.360;13.134;2023-02-14T07:49:46;103189.47;;;5.66;87.31
10064;BME280;5071;52.360;13.134;2023-02-14T07:54:48;103188.56;;;5.65;86.46
10064;BME280;5071;52.360;13.134;2023-02-14T07:59:52;103194.75;;;5.66;87.07
10064;BME280;5071;52.360;13.134;2023-02-14T08:04:54;103192.50;;;5.56;86.92
10064;BME280;5071;52.360;13.134;2023-02-14T08:09:57;103193.47;;;5.58;87.68
10064;BME280;5071;52.360;13.134;2023-02-14T08:15:00;103189.97;;;5.77;87.65
10064;BME280;5071;52.360;13.134;2023-02-14T08:20:03;103194.72;;;5.84;86.15
10064;BME280;5071;52.360;13.134;2023-02-14T08:25:06;103203.72;;;6.07;85.54
10064;BME280;5071;52.360;13.134;2023-02-14T08:30:10;103208.88;;;5.86;84.75
10064;BME280;5071;52.360;13.134;2023-02-14T08:35:13;103219.34;;;5.84;84.89
10064;BME280;5071;52.360;13.134;2023-02-14T08:40:15;103210.63;;;5.68;85.21
10064;BME280;5071;52.360;13.134;2023-02-14T08:45:18;103216.41;;;5.78;85.89
10064;BME280;5071;52.360;13.134;2023-02-14T08:50:20;103215.03;;;6.05;85.44
10064;BME280;5071;52.360;13.134;2023-02-14T08:55:23;103219.69;;;6.10;84.57
10064;BME280;5071;52.360;13.134;2023-02-14T09:00:26;103222.47;;;6.33;83.72
10064;BME280;5071;52.360;13.134;2023-02-14T09:05:28;103233.91;;;6.33;83.54
10064;BME280;5071;52.360;13.134;2023-02-14T09:10:31;103221.22;;;6.44;83.81
10064;BME280;5071;52.360;13.134;2023-02-14T09:15:34;103235.00;;;6.58;82.88
10064;BME280;5071;52.360;13.134;2023-02-14T09:20:43;103223.97;;;6.67;82.93
10064;BME280;5071;52.360;13.134;2023-02-14T09:26:00;103220.22;;;6.61;82.33
10064;BME280;5071;52.360;13.134;2023-02-14T09:31:09;103215.34;;;6.71;81.55
10064;BME280;5071;52.360;13.134;2023-02-14T09:36:12;103227.44;;;6.87;81.11
10064;BME280;5071;52.360;13.134;2023-02-14T09:41:43;103232.69;;;6.85;80.71
10064;BME280;5071;52.360;13.134;2023-02-14T09:47:23;103233.25;;;6.78;80.72
10064;BME280;5071;52.360;13.134;2023-02-14T09:52:35;103231.34;;;6.95;80.50
10064;BME280;5071;52.360;13.134;2023-02-14T09:57:42;103236.06;;;7.02;80.12
10064;BME280;5071;52.360;13.134;2023-02-14T10:02:57;103242.44;;;6.67;80.52
10064;BME280;5071;52.360;13.134;2023-02-14T10:08:23;103248.28;;;6.59;81.18
10064;BME280;5071;52.360;13.134;2023-02-14T10:13:32;103241.09;;;6.76;81.08
10064;BME280;5071;52.360;13.134;2023-02-14T10:18:40;103232.03;;;6.50;77.73
10064;BME280;5071;52.360;13.134;2023-02-14T10:23:48;103235.09;;;6.59;76.35
10064;BME280;5071;52.360;13.134;2023-02-14T10:28:54;103228.19;;;6.63;76.92
10064;BME280;5071;52.360;13.134;2023-02-14T10:34:26;103215.19;;;6.68;77.75
10064;BME280;5071;52.360;13.134;2023-02-14T10:39:46;103212.53;;;6.87;76.11
10064;BME280;5071;52.360;13.134;2023-02-14T10:45:14;103214.22;;;6.85;76.71
10064;BME280;5071;52.360;13.134;2023-02-14T10:50:25;103224.88;;;6.88;76.24
10064;BME280;5071;52.360;13.134;2023-02-14T10:55:48;103219.03;;;6.74;75.35
10064;BME280;5071;52.360;13.134;2023-02-14T11:01:01;103213.41;;;6.67;76.65
10064;BME280;5071;52.360;13.134;2023-02-14T11:06:07;103211.25;;;6.98;77.03
10064;BME280;5071;52.360;13.134;2023-02-14T11:11:20;103209.44;;;6.97;75.56
10064;BME280;5071;52.360;13.134;2023-02-14T11:16:31;103190.31;;;7.03;75.85
10064;BME280;5071;52.360;13.134;2023-02-14T11:21:38;103201.38;;;6.94;75.45
10064;BME280;5071;52.360;13.134;2023-02-14T11:26:47;103210.72;;;6.86;76.70
10064;BME280;5071;52.360;13.134;2023-02-14T11:31:51;103195.13;;;6.92;76.65
10064;BME280;5071;52.360;13.134;2023-02-14T11:36:54;103194.38;;;6.95;76.39
10064;BME280;5071;52.360;13.134;2023-02-14T11:42:04;103183.09;;;6.99;77.16
10064;BME280;5071;52.360;13.134;2023-02-14T11:47:24;103187.91;;;6.67;77.96
10064;BME280;5071;52.360;13.134;2023-02-14T11:53:00;103188.69;;;6.86;76.25
10064;BME280;5071;52.360;13.134;2023-02-14T11:58:03;103171.97;;;7.06;75.65
10064;BME280;5071;52.360;13.134;2023-02-14T12:03:17;103167.56;;;7.07;75.42
10064;BME280;5071;52.360;13.134;2023-02-14T12:08:25;103167.50;;;7.05;75.14
10064;BME280;5071;52.360;13.134;2023-02-14T12:13:29;103153.91;;;6.96;76.06
10064;BME280;5071;52.360;13.134;2023-02-14T12:18:41;103151.16;;;7.14;76.01
10064;BME280;5071;52.360;13.134;2023-02-14T12:23:53;103141.75;;;6.99;76.30
10064;BME280;5071;52.360;13.134;2023-02-14T12:29:05;103141.19;;;6.65;77.48
10064;BME280;5071;52.360;13.134;2023-02-14T12:34:11;103122.13;;;6.93;77.34
10064;BME280;5071;52.360;13.134;2023-02-14T12:39:20;103115.25;;;7.19;76.44
10064;BME280;5071;52.360;13.134;2023-02-14T12:44:33;103106.34;;;7.17;75.94
10064;BME280;5071;52.360;13.134;2023-02-14T12:49:55;103115.66;;;7.30;76.70
10064;BME280;5071;52.360;13.134;2023-02-14T12:55:17;103096.50;;;6.69;77.08
10064;BME280;5071;52.360;13.134;2023-02-14T13:00:30;103095.59;;;6.69;78.01
10064;BME280;5071;52.360;13.134;2023-02-14T13:05:44;103094.41;;;6.83;77.02
10064;BME280;5071;52.360;13.134;2023-02-14T13:10:58;103094.31;;;6.80;77.60
10064;BME280;5071;52.360;13.134;2023-02-14T13:16:09;103095.34;;;6.84;77.50
10064;BME280;5071;52.360;13.134;2023-02-14T13:21:16;103080.50;;;6.65;77.46
10064;BME280;5071;52.360;13.134;2023-02-14T13:26:24;103083.63;;;6.77;78.02
10064;BME280;5071;52.360;13.134;2023-02-14T13:31:29;103064.78;;;6.90;77.73
10064;BME280;5071;52.360;13.134;2023-02-14T13:36:32;103076.34;;;7.15;76.94
10064;BME280;5071;52.360;13.134;2023-02-14T13:41:38;103070.81;;;7.09;77.32
10064;BME280;5071;52.360;13.134;2023-02-14T13:46:51;103064.28;;;6.99;76.42
10064;BME280;5071;52.360;13.134;2023-02-14T13:51:54;103068.13;;;6.64;77.76
10064;BME280;5071;52.360;13.134;2023-02-14T13:57:00;103054.78;;;6.60;78.42
10064;BME280;5071;52.360;13.134;2023-02-14T14:02:37;103059.31;;;6.63;78.72
10064;BME280;5071;52.360;13.134;2023-02-14T14:07:41;103064.84;;;6.69;78.89
10064;BME280;5071;52.360;13.134;2023-02-14T14:12:45;103054.97;;;6.86;78.99
10064;BME280;5071;52.360;13.134;2023-02-14T14:23:32;103049.53;;;6.83;78.00
10064;BME280;5071;52.360;13.134;2023-02-14T14:28:36;103044.59;;;6.91;77.70
10064;BME280;5071;52.360;13.134;2023-02-14T14:33:38;103038.16;;;6.84;77.75
10064;BME280;5071;52.360;13.134;2023-02-14T14:38:46;103028.28;;;6.57;79.02
10064;BME280;5071;52.360;13.134;2023-02-14T14:43:49;103029.88;;;6.75;78.31
10064;BME280;5071;52.360;13.134;2023-02-14T14:48:52;103033.59;;;6.80;78.80
10064;BME280;5071;52.360;13.134;2023-02-14T14:53:57;103030.09;;;6.81;78.01
10064;BME280;5071;52.360;13.134;2023-02-14T14:59:26;103039.59;;;6.76;78.10
10064;BME280;5071;52.360;13.134;2023-02-14T15:04:30;103025.59;;;6.56;78.66
10064;BME280;5071;52.360;13.134;2023-02-14T15:09:33;103021.34;;;6.59;79.05
10064;BME280;5071;52.360;13.134;2023-02-14T15:14:40;103027.13;;;6.30;79.87
10064;BME280;5071;52.360;13.134;2023-02-14T15:19:44;103025.06;;;6.22;78.94
10064;BME280;5071;52.360;13.134;2023-02-14T15:24:48;103012.59;;;6.18;78.71
10064;BME280;5071;52.360;13.134;2023-02-14T15:29:57;103009.00;;;6.16;79.25
10064;BME280;5071;52.360;13.134;2023-02-14T15:35:02;102997.28;;;6.10;79.35
10064;BME280;5071;52.360;13.134;2023-02-14T15:40:06;102998.31;;;6.13;79.89
10064;BME280;5071;52.360;13.134;2023-02-14T15:45:16;103001.59;;;6.08;79.80
10064;BME280;5071;52.360;13.134;2023-02-14T15:50:22;102989.75;;;5.98;79.31
10064;BME280;5071;52.360;13.134;2023-02-14T15:55:25;102982.44;;;5.92;79.99
10064;BME280;5071;52.360;13.134;2023-02-14T16:00:30;102986.69;;;5.89;80.63
10064;BME280;5071;52.360;13.134;2023-02-14T16:05:33;102973.44;;;5.87;80.79
10064;BME280;5071;52.360;13.134;2023-02-14T16:10:37;102980.38;;;5.85;81.52
10064;BME280;5071;52.360;13.134;2023-02-14T16:15:55;102971.50;;;5.83;81.54
10064;BME280;5071;52.360;13.134;2023-02-14T16:21:09;102964.16;;;5.76;81.65
10064;BME280;5071;52.360;13.134;2023-02-14T16:26:12;102964.09;;;5.74;82.02
10064;BME280;5071;52.360;13.134;2023-02-14T16:31:16;102969.19;;;5.70;82.39
10064;BME280;5071;52.360;13.134;2023-02-14T16:36:22;102972.59;;;5.67;82.40
10064;BME280;5071;52.360;13.134;2023-02-14T16:41:27;102971.00;;;5.71;81.82
10064;BME280;5071;52.360;13.134;2023-02-14T16:46:34;102970.78;;;5.66;82.19
10064;BME280;5071;52.360;13.134;2023-02-14T16:51:37;102966.38;;;5.65;82.53
10064;BME280;5071;52.360;13.134;2023-02-14T16:56:42;102975.09;;;5.64;83.24
10064;BME280;5071;52.360;13.134;2023-02-14T17:01:47;102976.53;;;5.57;82.59
10064;BME280;5071;52.360;13.134;2023-02-14T17:06:52;102967.75;;;5.57;83.33
10064;BME280;5071;52.360;13.134;2023-02-14T17:11:57;102974.69;;;5.55;83.58
10064;BME280;5071;52.360;13.134;2023-02-14T17:17:03;102976.19;;;5.50;82.65
10064;BME280;5071;52.360;13.134;2023-02-14T17:22:06;102974.25;;;5.45;82.56
10064;BME280;5071;52.360;13.134;2023-02-14T17:27:07;102979.41;;;5.42;82.55
10064;BME280;5071;52.360;13.134;2023-02-14T17:32:11;102977.44;;;5.38;82.37
10064;BME280;5071;52.360;13.134;2023-02-14T17:37:13;102972.88;;;5.34;82.39
10064;BME280;5071;52.360;13.134;2023-02-14T17:42:15;102979.81;;;5.32;82.52
10064;BME280;5071;52.360;13.134;2023-02-14T17:47:19;102969.97;;;5.28;82.10
10064;BME280;5071;52.360;13.134;2023-02-14T17:52:23;102957.50;;;5.24;82.73
10064;BME280;5071;52.360;13.134;2023-02-14T17:57:25;102970.69;;;5.24;82.92
10064;BME280;5071;52.360;13.134;2023-02-14T18:02:29;102959.91;;;5.19;83.42
10064;BME280;5071;52.360;13.134;2023-02-14T18:07:31;102951.13;;;5.19;83.47
10064;BME280;5071;52.360;13.134;2023-02-14T18:12:33;102948.34;;;5.16;83.69
10064;BME280;5071;52.360;13.134;2023-02-14T18:17:36;102943.63;;;5.09;84.21
10064;BME280;5071;52.360;13.134;2023-02-14T18:22:39;102936.59;;;5.07;84.47
10064;BME280;5071;52.360;13.134;2023-02-14T18:27:41;102937.13;;;5.00;84.78
10064;BME280;5071;52.360;13.134;2023-02-14T18:32:44;102929.41;;;4.85;85.01
10064;BME280;5071;52.360;13.134;2023-02-14T18:37:46;102923.66;;;4.75;85.41
10064;BME280;5071;52.360;13.134;2023-02-14T18:42:48;102919.06;;;4.51;86.06
10064;BME280;5071;52.360;13.134;2023-02-14T18:47:51;102915.63;;;4.34;86.91
10064;BME280;5071;52.360;13.134;2023-02-14T18:52:54;102905.94;;;4.15;87.72
10064;BME280;5071;52.360;13.134;2023-02-14T18:57:56;102889.94;;;3.93;88.11
10064;BME280;5071;52.360;13.134;2023-02-14T19:03:00;102892.31;;;3.70;89.33
10064;BME280;5071;52.360;13.134;2023-02-14T19:08:10;102882.59;;;3.51;90.42
10064;BME280;5071;52.360;13.134;2023-02-14T19:13:11;102881.06;;;3.38;91.08
10064;BME280;5071;52.360;13.134;2023-02-14T19:18:15;102887.81;;;3.17;91.65
10064;BME280;5071;52.360;13.134;2023-02-14T19:23:17;102883.91;;;3.08;92.56
10064;BME280;5071;52.360;13.134;2023-02-14T19:28:28;102883.88;;;2.92;92.23
10064;BME280;5071;52.360;13.134;2023-02-14T19:33:36;102886.50;;;2.76;93.21
10064;BME280;5071;52.360;13.134;2023-02-14T19:38:39;102885.75;;;2.62;93.66
10064;BME280;5071;52.360;13.134;2023-02-14T19:43:41;102886.78;;;2.49;94.00
10064;BME280;5071;52.360;13.134;2023-02-14T19:48:45;102880.25;;;2.41;94.25
10064;BME280;5071;52.360;13.134;2023-02-14T19:53:48;102874.56;;;2.33;94.43
10064;BME280;5071;52.360;13.134;2023-02-14T19:58:51;102876.59;;;2.22;95.45
10064;BME280;5071;52.360;13.134;2023-02-14T20:03:59;102870.03;;;2.14;96.58
10064;BME280;5071;52.360;13.134;2023-02-14T20:09:25;102879.47;;;2.12;96.67
10064;BME280;5071;52.360;13.134;2023-02-14T20:14:28;102869.63;;;2.23;96.97
10064;BME280;5071;52.360;13.134;2023-02-14T20:19:43;102868.19;;;2.13;96.85
10064;BME280;5071;52.360;13.134;2023-02-14T20:24:45;102854.69;;;2.05;97.02
10064;BME280;5071;52.360;13.134;2023-02-14T20:29:48;102858.91;;;2.18;98.03
10064;BME280;5071;52.360;13.134;2023-02-14T20:34:52;102855.28;;;2.16;98.02
10064;BME280;5071;52.360;13.134;2023-02-14T20:39:55;102863.06;;;2.14;97.94
10064;BME280;5071;52.360;13.134;2023-02-14T20:44:58;102853.75;;;2.20;98.36
10064;BME280;5071;52.360;13.134;2023-02-14T20:50:01;102856.94;;;2.14;97.90
10064;BME280;5071;52.360;13.134;2023-02-14T20:55:05;102839.53;;;2.00;98.25
10064;BME280;5071;52.360;13.134;2023-02-14T21:00:08;102844.97;;;1.88;97.94
10064;BME280;5071;52.360;13.134;2023-02-14T21:05:36;102839.47;;;1.68;97.80
10064;BME280;5071;52.360;13.134;2023-02-14T21:10:41;102837.94;;;1.42;98.70
10064;BME280;5071;52.360;13.134;2023-02-14T21:15:43;102825.59;;;1.25;99.23
10064;BME280;5071;52.360;13.134;2023-02-14T21:20:48;102813.03;;;1.04;99.45
10064;BME280;5071;52.360;13.134;2023-02-14T21:25:51;102816.63;;;0.91;99.98
10064;BME280;5071;52.360;13.134;2023-02-14T21:31:01;102813.34;;;0.81;100.00
10064;BME280;5071;52.360;13.134;2023-02-14T21:36:07;102812.97;;;0.74;100.00
10064;BME280;5071;52.360;13.134;2023-02-14T21:41:12;102795.53;;;0.60;100.00
10064;BME280;5071;52.360;13.134;2023-02-14T21:46:16;102794.81;;;0.48;100.00
10064;BME280;5071;52.360;13.134;2023-02-14T21:51:20;102801.88;;;0.35;100.00
10064;BME280;5071;52.360;13.134;2023-02-14T21:56:22;102805.34;;;0.21;100.00
10064;BME280;5071;52.360;13.134;2023-02-14T22:01:26;102797.94;;;0.01;100.00
10064;BME280;5071;52.360;13.134;2023-02-14T22:06:30;102796.34;;;-0.11;100.00
10064;BME280;5071;52.360;13.134;2023-02-14T22:11:32;102789.13;;;-0.28;100.00
10064;BME280;5071;52.360;13.134;2023-02-14T22:16:35;102792.44;;;-0.44;100.00
10064;BME280;5071;52.360;13.134;2023-02-14T22:21:39;102798.78;;;-0.54;100.00
10064;BME280;5071;52.360;13.134;2023-02-14T22:26:41;102794.34;;;-0.68;100.00
10064;BME280;5071;52.360;13.134;2023-02-14T22:31:43;102781.00;;;-0.73;100.00
10064;BME280;5071;52.360;13.134;2023-02-14T22:36:47;102777.78;;;-0.82;100.00
10064;BME280;5071;52.360;13.134;2023-02-14T22:41:49;102767.25;;;-0.70;100.00
10064;BME280;5071;52.360;13.134;2023-02-14T22:46:51;102765.75;;;-0.80;100.00
10064;BME280;5071;52.360;13.134;2023-02-14T22:52:00;102756.81;;;-0.97;100.00
10064;BME280;5071;52.360;13.134;2023-02-14T22:57:02;102751.69;;;-1.09;100.00
10064;BME280;5071;52.360;13.134;2023-02-14T23:02:05;102742.31;;;-1.19;100.00
10064;BME280;5071;52.360;13.134;2023-02-14T23:07:10;102752.31;;;-1.25;100.00
10064;BME280;5071;52.360;13.134;2023-02-14T23:12:12;102745.41;;;-1.24;100.00
10064;BME280;5071;52.360;13.134;2023-02-14T23:17:14;102750.91;;;-1.33;100.00
10064;BME280;5071;52.360;13.134;2023-02-14T23:22:20;102746.44;;;-1.47;100.00
10064;BME280;5071;52.360;13.134;2023-02-14T23:27:25;102741.94;;;-1.50;100.00
10064;BME280;5071;52.360;13.134;2023-02-14T23:32:30;102740.59;;;-1.57;100.00
10064;BME280;5071;52.360;13.134;2023-02-14T23:37:37;102739.22;;;-1.51;100.00
10064;BME280;5071;52.360;13.134;2023-02-14T23:42:53;102735.97;;;-1.61;100.00
10064;BME280;5071;52.360;13.134;2023-02-14T23:48:03;102735.22;;;-1.71;100.00
10064;BME280;5071;52.360;13.134;2023-02-14T23:53:07;102742.84;;;-1.86;100.00
10064;BME280;5071;52.360;13.134;2023-02-14T23:58:09;102730.44;;;-1.90;100.00
